Munterville, Iowa
Current Conditions -  °F | °C
As of 10:53 PM on Sunday 19 Oct 2014 (Local Time) from KOTM Reporting Station
Clear Clear  
Wind Chill: 53°   Ceiling: Unl
Heat Index: 53°   Visibility: 10mi
Dew Point: 44°   Wind: 7mph
Humidity: 71%   Direction: 220°SW
Pressure: 29.92"   Gusts: NA
Location:  40.9822°N, 92.5833°W
Report Text: KOTM 200353Z AUTO 22006KT 10SM CLR 12/07 A2992 RMK AO2 SLP134 T01170067
Loading
Personal Weather Stations






























Interactive Weather Map
Tropical Storm Tracking
New forecast layout! Learn more

10-Day Weather Forecast

Advertisements
Track Severe Weather on mobile